Time;durP1;ratioP1;P1;durP2;ratioP2;P2;SDS_P1;SDS_P2;PMS_P1;PMS_P2;Temp;Humidity;BMP_temperature;BMP_pressure;BME280_temperature;BME280_humidity;BME280_pressure;Samples;Min_cycle;Max_cycle;Signal;HPM_P1;HPM_P2
2021/07/03 11:24:06;;;;;;;17.58;10.80;;;;;;;;;;5072557;27;20408;-70
2021/07/03 11:26:34;;;;;;;17.95;10.25;;;;;;;;;;5065543;28;20123;-68
2021/07/03 11:29:02;;;;;;;16.85;9.82;;;;;;;;;;5004055;28;90210;-68
2021/07/03 11:31:36;;;;;;;15.45;9.32;;;;;;;;;;5007233;27;1390073;-69
2021/07/03 11:34:01;;;;;;;14.35;9.05;;;;;;;;;;5065526;28;20115;-69
2021/07/03 11:36:27;;;;;;;13.90;8.70;;;;;;;;;;5085298;28;20044;-67
2021/07/03 11:38:57;;;;;;;12.10;8.50;;;;;;;;;;5088941;28;20032;-68
2021/07/03 11:46:38;;;;;;;13.80;8.38;;;;;;;;;;5026887;27;20446;-79
2021/07/03 11:49:04;;;;;;;11.68;8.98;;;;;;;;;;5025937;28;20049;-80
2021/07/03 11:51:29;;;;;;;12.40;8.65;;;;;;;;;;5027832;28;20039;-80
2021/07/03 11:53:54;;;;;;;12.45;8.52;;;;;;;;;;5000891;28;20022;-80
2021/07/03 11:56:22;;;;;;;12.55;8.82;;;;;;;;;;5027642;28;20761;-80
2021/07/03 11:58:50;;;;;;;11.43;8.35;;;;;;;;;;5022843;28;20529;-80
2021/07/03 12:01:18;;;;;;;8.40;7.18;;;;;;;;;;5029377;28;20559;-79
2021/07/03 12:03:45;;;;;;;8.82;6.93;;;;;;;;;;5023207;28;20040;-80
2021/07/03 12:06:18;;;;;;;9.80;7.07;;;;;;;;;;5039290;28;20033;-80
2021/07/03 12:08:43;;;;;;;10.07;7.45;;;;;;;;;;5026377;28;20037;-79
2021/07/03 12:11:11;;;;;;;10.20;7.38;;;;;;;;;;5020416;28;20733;-80
2021/07/03 12:13:56;;;;;;;9.85;7.03;;;;;;;;;;5024772;28;20037;-80
2021/07/03 12:16:23;;;;;;;8.27;6.78;;;;;;;;;;5039277;28;20021;-80
2021/07/03 12:18:53;;;;;;;9.23;7.57;;;;;;;;;;5033135;28;20033;-80
2021/07/03 12:21:27;;;;;;;8.55;6.78;;;;;;;;;;5024986;28;20034;-80
2021/07/03 12:24:04;;;;;;;9.15;6.60;;;;;;;;;;5029150;28;20025;-80
2021/07/03 12:26:43;;;;;;;9.07;7.05;;;;;;;;;;5021433;28;20804;-80
2021/07/03 12:29:23;;;;;;;7.50;6.30;;;;;;;;;;5025224;28;20037;-80
2021/07/03 12:31:49;;;;;;;7.68;6.75;;;;;;;;;;5023374;28;20136;-80
2021/07/03 12:34:26;;;;;;;9.15;6.32;;;;;;;;;;5021431;28;20033;-79
2021/07/03 12:37:13;;;;;;;8.93;6.20;;;;;;;;;;5021242;28;20136;-81
2021/07/03 12:39:40;;;;;;;9.05;7.38;;;;;;;;;;5028020;28;20140;-80
2021/07/03 12:42:13;;;;;;;9.82;6.45;;;;;;;;;;5027054;28;20083;-81
2021/07/03 12:44:46;;;;;;;8.32;6.80;;;;;;;;;;5021295;28;20069;-80
2021/07/03 12:47:17;;;;;;;8.93;6.13;;;;;;;;;;5028746;28;20863;-80
2021/07/03 12:49:44;;;;;;;10.43;7.18;;;;;;;;;;5018272;28;20663;-81
2021/07/03 12:52:12;;;;;;;8.68;6.68;;;;;;;;;;5029249;28;20163;-81
2021/07/03 12:54:38;;;;;;;9.63;7.10;;;;;;;;;;5034138;28;20056;-81
2021/07/03 12:57:04;;;;;;;8.93;7.00;;;;;;;;;;4994200;28;20077;-81
2021/07/03 12:59:41;;;;;;;8.43;7.07;;;;;;;;;;5026566;28;20497;-81
2021/07/03 13:02:07;;;;;;;8.20;7.20;;;;;;;;;;4977134;28;20030;-82
2021/07/03 13:04:33;;;;;;;9.90;6.93;;;;;;;;;;4994702;28;20042;-82
2021/07/03 13:06:59;;;;;;;11.68;7.38;;;;;;;;;;5010825;28;20037;-82
2021/07/03 13:09:25;;;;;;;8.70;7.20;;;;;;;;;;5023006;28;20397;-82
2021/07/03 13:11:51;;;;;;;9.80;7.32;;;;;;;;;;5032815;28;20022;-82
2021/07/03 13:14:16;;;;;;;8.95;6.90;;;;;;;;;;4999589;28;20050;-82
2021/07/03 13:16:42;;;;;;;9.98;6.95;;;;;;;;;;4998073;28;20072;-82
2021/07/03 13:19:07;;;;;;;10.38;7.38;;;;;;;;;;4997505;28;20733;-82
2021/07/03 13:21:32;;;;;;;11.95;7.57;;;;;;;;;;5028252;28;20086;-83
2021/07/03 13:23:58;;;;;;;10.52;7.28;;;;;;;;;;5011145;28;20108;-83
2021/07/03 13:26:23;;;;;;;10.73;7.15;;;;;;;;;;5016342;28;20040;-82
2021/07/03 13:28:49;;;;;;;10.35;7.15;;;;;;;;;;5012380;28;20087;-82
2021/07/03 13:31:14;;;;;;;9.00;7.18;;;;;;;;;;5003257;28;20496;-82
2021/07/03 13:33:40;;;;;;;9.98;7.18;;;;;;;;;;5002093;28;20533;-82
2021/07/03 13:36:07;;;;;;;8.63;7.10;;;;;;;;;;5014592;28;20391;-82
2021/07/03 13:38:34;;;;;;;8.98;7.10;;;;;;;;;;5011776;28;20041;-82
2021/07/03 13:40:59;;;;;;;9.07;6.65;;;;;;;;;;5012080;28;20026;-82
2021/07/03 13:43:25;;;;;;;8.90;7.07;;;;;;;;;;5007231;28;20048;-83
2021/07/03 13:45:51;;;;;;;9.90;7.25;;;;;;;;;;4999246;28;20049;-82
2021/07/03 13:48:16;;;;;;;8.75;7.10;;;;;;;;;;5019353;28;20791;-82
2021/07/03 13:50:43;;;;;;;8.25;7.10;;;;;;;;;;5018491;28;20041;-82
2021/07/03 13:53:09;;;;;;;8.73;7.35;;;;;;;;;;5018997;28;20034;-82
2021/07/03 13:55:36;;;;;;;9.80;7.03;;;;;;;;;;5018034;28;20160;-82
2021/07/03 13:58:02;;;;;;;9.38;6.93;;;;;;;;;;5016208;28;20083;-82
2021/07/03 14:00:28;;;;;;;9.82;7.40;;;;;;;;;;5014196;28;20029;-82
2021/07/03 14:02:53;;;;;;;10.60;7.85;;;;;;;;;;5028001;28;20034;-82
2021/07/03 14:05:19;;;;;;;10.38;7.80;;;;;;;;;;5015415;28;20030;-82
2021/07/03 14:07:44;;;;;;;9.70;7.68;;;;;;;;;;5010358;28;20030;-82
2021/07/03 14:10:10;;;;;;;8.95;7.07;;;;;;;;;;5029192;28;20036;-81
2021/07/03 14:12:36;;;;;;;9.32;7.50;;;;;;;;;;5013549;28;21570;-82
2021/07/03 14:15:05;;;;;;;10.60;7.70;;;;;;;;;;5013759;28;20030;-82
2021/07/03 14:17:32;;;;;;;10.40;8.68;;;;;;;;;;5012368;28;20040;-82
2021/07/03 14:19:58;;;;;;;10.68;7.70;;;;;;;;;;5028170;28;20036;-82
2021/07/03 14:22:24;;;;;;;11.55;8.55;;;;;;;;;;4998712;28;20105;-82
2021/07/03 14:24:50;;;;;;;10.55;8.18;;;;;;;;;;5010087;28;20037;-83
2021/07/03 14:27:15;;;;;;;9.13;8.23;;;;;;;;;;5017424;28;20488;-82
2021/07/03 14:29:40;;;;;;;9.90;8.57;;;;;;;;;;5015703;28;20038;-83
2021/07/03 14:32:06;;;;;;;10.07;8.20;;;;;;;;;;5010774;28;20104;-83
2021/07/03 14:34:32;;;;;;;11.68;8.20;;;;;;;;;;5003981;28;20421;-82
2021/07/03 14:36:57;;;;;;;11.05;8.50;;;;;;;;;;4999438;28;20033;-83
2021/07/03 14:39:23;;;;;;;9.82;8.10;;;;;;;;;;5016396;28;20026;-83
2021/07/03 14:41:49;;;;;;;13.50;9.02;;;;;;;;;;5014199;28;20465;-83
2021/07/03 14:44:14;;;;;;;12.15;8.90;;;;;;;;;;4994730;28;20068;-83
2021/07/03 14:46:41;;;;;;;10.73;8.77;;;;;;;;;;4995693;28;20042;-83
2021/07/03 14:49:07;;;;;;;10.82;9.05;;;;;;;;;;5015241;28;20022;-83
2021/07/03 14:51:33;;;;;;;12.43;8.50;;;;;;;;;;4997813;28;20130;-83
2021/07/03 14:53:58;;;;;;;10.95;8.98;;;;;;;;;;5013018;28;20069;-83
2021/07/03 14:56:24;;;;;;;10.82;8.27;;;;;;;;;;5013614;28;20044;-82
2021/07/03 14:58:49;;;;;;;13.60;9.18;;;;;;;;;;5014030;28;20034;-83
2021/07/03 15:01:15;;;;;;;10.35;8.48;;;;;;;;;;5015322;28;20030;-83
2021/07/03 15:03:42;;;;;;;11.88;9.38;;;;;;;;;;5013565;28;20038;-83
2021/07/03 15:06:08;;;;;;;10.50;9.07;;;;;;;;;;5013138;28;20030;-83
2021/07/03 15:08:34;;;;;;;10.15;9.05;;;;;;;;;;5022929;28;20056;-83
2021/07/03 15:10:59;;;;;;;14.18;9.90;;;;;;;;;;5012848;28;20397;-83
2021/07/03 15:13:24;;;;;;;10.10;8.95;;;;;;;;;;5013042;28;20148;-83
2021/07/03 15:15:50;;;;;;;10.18;7.80;;;;;;;;;;4995742;28;20101;-83
2021/07/03 15:18:15;;;;;;;11.50;8.38;;;;;;;;;;4993557;28;20061;-83
2021/07/03 15:20:41;;;;;;;10.27;8.00;;;;;;;;;;4980478;28;20029;-83
2021/07/03 15:23:06;;;;;;;10.00;8.30;;;;;;;;;;5005574;28;20034;-82
2021/07/03 15:25:32;;;;;;;11.48;7.72;;;;;;;;;;5010600;28;20049;-82
2021/07/03 15:27:57;;;;;;;9.15;7.95;;;;;;;;;;5014260;28;20041;-82
2021/07/03 15:30:24;;;;;;;10.77;7.68;;;;;;;;;;4983041;28;20037;-82
2021/07/03 15:32:54;;;;;;;8.23;7.10;;;;;;;;;;5009997;28;20080;-83
2021/07/03 15:35:20;;;;;;;11.93;7.88;;;;;;;;;;5013822;28;20565;-82
2021/07/03 15:37:47;;;;;;;10.70;7.53;;;;;;;;;;5010258;28;20561;-82
2021/07/03 15:40:13;;;;;;;11.38;8.32;;;;;;;;;;5014134;28;20057;-82
2021/07/03 15:42:40;;;;;;;13.70;8.23;;;;;;;;;;5008817;28;20498;-82
2021/07/03 15:45:06;;;;;;;9.25;7.63;;;;;;;;;;5027639;28;20432;-82
2021/07/03 15:47:32;;;;;;;9.95;7.15;;;;;;;;;;5027974;28;20036;-82
2021/07/03 15:49:58;;;;;;;7.50;6.57;;;;;;;;;;5011799;28;20017;-82
2021/07/03 15:52:24;;;;;;;7.32;6.63;;;;;;;;;;5007512;28;20037;-82
2021/07/03 15:54:49;;;;;;;8.98;7.22;;;;;;;;;;5006399;28;20079;-82
2021/07/03 15:57:15;;;;;;;7.05;6.35;;;;;;;;;;4993886;28;20030;-82
2021/07/03 15:59:40;;;;;;;7.82;6.68;;;;;;;;;;5005490;28;20129;-82
2021/07/03 16:02:07;;;;;;;7.00;6.30;;;;;;;;;;4994331;28;20105;-82
2021/07/03 16:04:33;;;;;;;8.02;5.88;;;;;;;;;;5007068;28;20438;-82
2021/07/03 16:06:59;;;;;;;7.57;5.82;;;;;;;;;;5026118;28;20026;-82
2021/07/03 16:09:24;;;;;;;7.72;5.65;;;;;;;;;;4976285;28;20125;-82
2021/07/03 16:11:50;;;;;;;6.45;5.50;;;;;;;;;;5008244;28;20030;-82
2021/07/03 16:14:16;;;;;;;6.65;5.72;;;;;;;;;;5005488;28;20034;-82
2021/07/03 16:16:41;;;;;;;9.50;6.05;;;;;;;;;;4992966;28;20049;-82
2021/07/03 16:19:07;;;;;;;7.38;5.90;;;;;;;;;;5026779;28;20038;-82
2021/07/03 16:21:33;;;;;;;9.27;6.32;;;;;;;;;;5009090;28;20026;-83
2021/07/03 16:23:58;;;;;;;7.18;6.00;;;;;;;;;;5012000;28;20026;-83
2021/07/03 16:26:24;;;;;;;15.25;8.10;;;;;;;;;;5011470;28;20469;-82
2021/07/03 16:28:49;;;;;;;9.80;7.25;;;;;;;;;;5012483;28;20044;-83
2021/07/03 16:31:15;;;;;;;9.20;6.88;;;;;;;;;;5002158;28;20030;-82
2021/07/03 16:33:40;;;;;;;9.80;6.22;;;;;;;;;;5011450;28;20045;-82
2021/07/03 16:36:06;;;;;;;11.07;7.55;;;;;;;;;;5010819;28;20468;-82
2021/07/03 16:38:32;;;;;;;9.57;8.00;;;;;;;;;;5017694;28;20037;-82
2021/07/03 16:40:59;;;;;;;10.45;7.05;;;;;;;;;;5013272;28;20026;-82
2021/07/03 16:43:24;;;;;;;10.32;7.63;;;;;;;;;;5006586;28;20577;-83
2021/07/03 16:45:50;;;;;;;11.30;8.45;;;;;;;;;;5006205;28;20050;-82
2021/07/03 16:48:16;;;;;;;9.85;8.45;;;;;;;;;;5005280;28;20030;-82
2021/07/03 16:50:42;;;;;;;11.90;8.57;;;;;;;;;;5016429;28;20026;-82
2021/07/03 16:53:08;;;;;;;12.23;9.10;;;;;;;;;;5016350;28;20405;-82
2021/07/03 16:55:33;;;;;;;11.23;8.15;;;;;;;;;;5016861;28;20113;-82
2021/07/03 16:57:59;;;;;;;7.90;7.10;;;;;;;;;;5018072;28;20473;-82
2021/07/03 17:00:24;;;;;;;11.02;8.95;;;;;;;;;;5015424;28;20038;-82
2021/07/03 17:02:50;;;;;;;11.50;8.65;;;;;;;;;;4999524;28;20143;-82
2021/07/03 17:05:15;;;;;;;9.95;8.85;;;;;;;;;;5017654;28;20033;-82
2021/07/03 17:07:40;;;;;;;9.93;7.50;;;;;;;;;;4999070;28;20037;-82
2021/07/03 17:10:06;;;;;;;9.80;7.72;;;;;;;;;;5031178;28;20037;-81
2021/07/03 17:12:32;;;;;;;10.48;7.97;;;;;;;;;;5003819;28;20040;-81
2021/07/03 17:14:57;;;;;;;8.85;7.60;;;;;;;;;;5020525;28;20029;-81
2021/07/03 17:17:23;;;;;;;11.48;9.13;;;;;;;;;;5020928;28;20038;-81
2021/07/03 17:19:48;;;;;;;9.25;7.07;;;;;;;;;;5003512;28;20030;-81
2021/07/03 17:22:14;;;;;;;11.80;9.07;;;;;;;;;;5006888;28;20386;-81
2021/07/03 17:24:39;;;;;;;12.98;9.27;;;;;;;;;;5025932;28;20388;-81
2021/07/03 17:27:05;;;;;;;11.63;9.93;;;;;;;;;;5033947;28;20030;-80
2021/07/03 17:29:30;;;;;;;10.68;8.43;;;;;;;;;;5015486;28;20030;-80
2021/07/03 17:31:56;;;;;;;10.88;8.95;;;;;;;;;;5002667;28;20367;-80
2021/07/03 17:34:22;;;;;;;11.32;8.93;;;;;;;;;;5017219;28;20032;-80
2021/07/03 17:36:48;;;;;;;13.93;9.93;;;;;;;;;;5034559;28;20120;-81
2021/07/03 17:39:13;;;;;;;12.93;11.00;;;;;;;;;;5031347;28;20036;-81
2021/07/03 17:41:39;;;;;;;11.25;9.00;;;;;;;;;;5016594;28;20029;-81
2021/07/03 17:44:05;;;;;;;10.43;7.93;;;;;;;;;;5017118;28;20034;-81
2021/07/03 17:46:30;;;;;;;10.45;8.68;;;;;;;;;;5019742;28;20540;-81
2021/07/03 17:48:56;;;;;;;12.43;9.70;;;;;;;;;;5009688;28;20041;-80
2021/07/03 17:51:22;;;;;;;11.75;8.95;;;;;;;;;;5019754;28;20034;-80
2021/07/03 17:53:47;;;;;;;11.82;9.52;;;;;;;;;;5017032;28;20469;-80
2021/07/03 17:56:16;;;;;;;10.18;8.85;;;;;;;;;;5034534;28;20065;-81
2021/07/03 17:58:42;;;;;;;10.93;8.48;;;;;;;;;;5009517;28;20038;-81
2021/07/03 18:01:07;;;;;;;10.35;8.50;;;;;;;;;;4995766;28;20572;-81
2021/07/03 18:03:33;;;;;;;10.38;8.40;;;;;;;;;;5012936;28;20037;-81
2021/07/03 18:05:58;;;;;;;10.48;8.68;;;;;;;;;;5030508;28;20037;-81
2021/07/03 18:08:23;;;;;;;10.40;8.20;;;;;;;;;;5013607;28;20041;-80
2021/07/03 18:10:49;;;;;;;10.07;8.05;;;;;;;;;;5010762;28;20026;-81
2021/07/03 18:13:14;;;;;;;9.05;8.02;;;;;;;;;;5012678;28;20041;-80
2021/07/03 18:15:40;;;;;;;10.13;7.82;;;;;;;;;;5014194;28;20057;-81
2021/07/03 18:18:05;;;;;;;8.43;7.53;;;;;;;;;;5014753;28;20051;-81
2021/07/03 18:20:31;;;;;;;8.68;7.70;;;;;;;;;;5030343;28;20060;-81
2021/07/03 18:22:56;;;;;;;9.00;7.47;;;;;;;;;;4998306;28;20088;-81
2021/07/03 18:25:22;;;;;;;9.32;7.90;;;;;;;;;;5031619;28;20409;-81
2021/07/03 18:27:47;;;;;;;9.35;7.72;;;;;;;;;;5010954;28;20045;-81
2021/07/03 18:30:16;;;;;;;10.65;8.77;;;;;;;;;;5016501;28;20149;-81
2021/07/03 18:32:41;;;;;;;9.10;7.60;;;;;;;;;;5023013;28;20057;-81
2021/07/03 18:35:08;;;;;;;9.32;7.38;;;;;;;;;;5001580;28;20022;-82
2021/07/03 18:37:33;;;;;;;8.68;7.07;;;;;;;;;;4984539;28;20034;-81
2021/07/03 18:39:59;;;;;;;9.75;7.40;;;;;;;;;;5000931;28;20117;-82
2021/07/03 18:42:24;;;;;;;10.25;7.45;;;;;;;;;;5000071;28;20091;-82
2021/07/03 18:44:50;;;;;;;8.30;7.07;;;;;;;;;;5012217;28;20054;-81
2021/07/03 18:47:15;;;;;;;8.25;6.95;;;;;;;;;;4962894;28;20518;-81
2021/07/03 18:49:41;;;;;;;9.80;7.45;;;;;;;;;;4993425;28;20046;-81
2021/07/03 18:52:06;;;;;;;9.48;7.35;;;;;;;;;;4979754;28;20038;-81
2021/07/03 18:54:33;;;;;;;9.57;7.70;;;;;;;;;;4990469;28;385985;-81
2021/07/03 18:56:59;;;;;;;9.77;7.72;;;;;;;;;;4993836;28;20038;-81
2021/07/03 18:59:24;;;;;;;7.97;7.18;;;;;;;;;;5010049;28;20454;-80
2021/07/03 19:01:50;;;;;;;8.63;7.32;;;;;;;;;;4997980;28;20040;-80
2021/07/03 19:04:15;;;;;;;9.90;7.80;;;;;;;;;;5013598;28;20082;-81
2021/07/03 19:06:41;;;;;;;10.50;8.35;;;;;;;;;;5000334;28;20482;-80
2021/07/03 19:09:06;;;;;;;10.30;8.20;;;;;;;;;;5001506;28;20049;-81
2021/07/03 19:11:32;;;;;;;8.98;7.50;;;;;;;;;;4987643;28;20030;-81
2021/07/03 19:13:57;;;;;;;9.48;7.57;;;;;;;;;;5015042;28;20821;-80
2021/07/03 19:16:23;;;;;;;9.52;8.05;;;;;;;;;;5015089;28;20057;-80
2021/07/03 19:18:48;;;;;;;8.10;7.28;;;;;;;;;;4989356;28;20030;-80
2021/07/03 19:21:13;;;;;;;10.68;8.50;;;;;;;;;;4991965;28;20116;-81
2021/07/03 19:23:39;;;;;;;8.98;7.65;;;;;;;;;;4987449;28;20046;-81
2021/07/03 19:26:05;;;;;;;8.95;7.25;;;;;;;;;;4986499;28;20031;-81
2021/07/03 19:28:32;;;;;;;9.63;7.93;;;;;;;;;;5003449;28;20069;-81
2021/07/03 19:30:57;;;;;;;8.93;7.70;;;;;;;;;;4981869;28;20076;-80
2021/07/03 19:33:24;;;;;;;9.48;8.43;;;;;;;;;;4972171;28;21521;-81
2021/07/03 19:35:51;;;;;;;10.70;8.25;;;;;;;;;;4968559;28;20026;-81
2021/07/03 19:38:16;;;;;;;9.63;8.32;;;;;;;;;;4995868;28;20035;-80
2021/07/03 19:40:42;;;;;;;9.40;7.95;;;;;;;;;;5018167;28;20038;-81
2021/07/03 19:43:07;;;;;;;9.45;8.07;;;;;;;;;;4988259;28;20085;-80
2021/07/03 19:45:33;;;;;;;9.55;8.07;;;;;;;;;;5001974;28;20554;-81
2021/07/03 19:47:59;;;;;;;8.73;7.18;;;;;;;;;;5016136;28;20067;-81
2021/07/03 19:50:25;;;;;;;12.10;8.98;;;;;;;;;;4978425;28;20532;-81
2021/07/03 19:52:51;;;;;;;8.07;7.00;;;;;;;;;;5016925;28;20481;-80
2021/07/03 19:55:17;;;;;;;9.95;7.90;;;;;;;;;;4999936;28;20030;-81
2021/07/03 19:57:43;;;;;;;9.40;8.10;;;;;;;;;;4987437;28;20034;-81
2021/07/03 20:00:17;;;;;;;9.18;7.90;;;;;;;;;;4983141;28;20042;-81
2021/07/03 20:02:43;;;;;;;9.13;7.97;;;;;;;;;;4990502;28;20437;-81
2021/07/03 20:05:10;;;;;;;9.48;8.30;;;;;;;;;;4990256;28;20049;-82
2021/07/03 20:07:37;;;;;;;14.27;10.80;;;;;;;;;;4962442;28;20110;-81
2021/07/03 20:10:04;;;;;;;13.45;11.27;;;;;;;;;;4994885;28;20038;-81
2021/07/03 20:12:30;;;;;;;12.05;10.57;;;;;;;;;;5006468;28;20576;-81
2021/07/03 20:14:55;;;;;;;12.45;9.93;;;;;;;;;;5025779;28;20052;-81
2021/07/03 20:17:21;;;;;;;10.82;8.88;;;;;;;;;;5030821;28;20042;-81
2021/07/03 20:19:46;;;;;;;11.70;10.43;;;;;;;;;;4994218;28;20550;-81
2021/07/03 20:22:11;;;;;;;10.73;9.00;;;;;;;;;;5022308;28;20046;-81
2021/07/03 20:24:37;;;;;;;9.90;8.82;;;;;;;;;;5012519;28;20066;-81
2021/07/03 20:27:03;;;;;;;10.15;8.48;;;;;;;;;;5006123;28;20088;-82
2021/07/03 20:29:30;;;;;;;11.05;9.23;;;;;;;;;;4990101;28;20080;-81
2021/07/03 20:31:57;;;;;;;10.10;7.88;;;;;;;;;;5000618;28;20116;-81
2021/07/03 20:34:23;;;;;;;9.73;8.35;;;;;;;;;;5016168;28;20030;-82
2021/07/03 20:36:49;;;;;;;10.82;9.10;;;;;;;;;;4986192;28;20030;-81
2021/07/03 20:39:16;;;;;;;10.77;9.48;;;;;;;;;;5021521;28;20038;-81
2021/07/03 20:41:43;;;;;;;13.80;11.75;;;;;;;;;;5016082;28;20046;-81
2021/07/03 20:44:10;;;;;;;11.50;9.20;;;;;;;;;;4986464;28;20038;-81
2021/07/03 20:46:37;;;;;;;12.77;11.48;;;;;;;;;;5006969;28;20077;-81
2021/07/03 20:49:05;;;;;;;11.40;9.27;;;;;;;;;;4987033;28;20029;-82
2021/07/03 20:51:30;;;;;;;9.73;8.15;;;;;;;;;;5005629;28;20027;-81
2021/07/03 20:53:56;;;;;;;11.70;9.80;;;;;;;;;;5008703;28;20038;-81
2021/07/03 20:56:22;;;;;;;13.00;10.77;;;;;;;;;;5004264;28;20041;-81
2021/07/03 20:58:48;;;;;;;10.35;8.90;;;;;;;;;;4987799;28;20085;-82
2021/07/03 21:01:14;;;;;;;13.50;10.00;;;;;;;;;;5006104;28;20030;-81
2021/07/03 21:03:39;;;;;;;11.80;9.10;;;;;;;;;;4986873;28;20034;-81
2021/07/03 21:06:04;;;;;;;14.52;10.40;;;;;;;;;;5018766;28;20505;-82
2021/07/03 21:08:30;;;;;;;10.75;9.65;;;;;;;;;;5005142;28;20038;-81
2021/07/03 21:10:55;;;;;;;10.65;9.05;;;;;;;;;;5015237;28;20038;-81
2021/07/03 21:13:21;;;;;;;11.43;9.60;;;;;;;;;;4991167;28;20034;-81
2021/07/03 21:15:47;;;;;;;10.45;8.57;;;;;;;;;;4985550;28;20022;-81
2021/07/03 21:18:12;;;;;;;11.10;9.55;;;;;;;;;;5006315;28;20034;-81
2021/07/03 21:20:38;;;;;;;10.45;8.90;;;;;;;;;;4977533;28;20405;-81
2021/07/03 21:23:03;;;;;;;12.90;9.70;;;;;;;;;;5004319;28;20034;-81
2021/07/03 21:25:29;;;;;;;10.40;9.07;;;;;;;;;;5009193;28;20042;-81
2021/07/03 21:27:55;;;;;;;10.38;8.60;;;;;;;;;;5005946;28;20051;-81
2021/07/03 21:30:25;;;;;;;12.10;9.30;;;;;;;;;;4990353;28;20070;-82
2021/07/03 21:32:51;;;;;;;9.82;8.73;;;;;;;;;;5005556;28;20484;-81
2021/07/03 21:35:17;;;;;;;12.55;8.88;;;;;;;;;;4986523;28;20081;-81
2021/07/03 21:37:44;;;;;;;9.40;8.40;;;;;;;;;;4992694;28;20034;-82
2021/07/03 21:40:14;;;;;;;9.88;8.85;;;;;;;;;;4989665;28;20180;-82
2021/07/03 21:42:40;;;;;;;10.43;7.78;;;;;;;;;;4989439;28;20029;-82
2021/07/03 21:45:06;;;;;;;9.95;8.10;;;;;;;;;;4988987;28;20054;-81
2021/07/03 21:47:32;;;;;;;10.13;8.35;;;;;;;;;;4990855;28;20030;-82
2021/07/03 21:49:57;;;;;;;8.82;7.70;;;;;;;;;;4993515;28;20022;-82
2021/07/03 21:52:23;;;;;;;10.13;7.78;;;;;;;;;;4993056;28;20117;-82
2021/07/03 21:54:48;;;;;;;9.98;8.88;;;;;;;;;;4990691;28;20065;-81
2021/07/03 21:57:14;;;;;;;9.75;6.97;;;;;;;;;;4989146;28;20057;-82
2021/07/03 21:59:39;;;;;;;8.68;7.78;;;;;;;;;;5002873;28;20478;-81
2021/07/03 22:02:06;;;;;;;10.15;7.32;;;;;;;;;;4990006;28;20035;-81
2021/07/03 22:04:31;;;;;;;8.48;6.55;;;;;;;;;;4990015;28;20053;-81
2021/07/03 22:06:57;;;;;;;7.47;6.30;;;;;;;;;;5021254;28;20121;-81
2021/07/03 22:09:26;;;;;;;7.47;6.20;;;;;;;;;;5025468;28;20030;-81
2021/07/03 22:11:56;;;;;;;7.10;6.15;;;;;;;;;;5019227;28;20034;-81
2021/07/03 22:14:21;;;;;;;9.60;6.38;;;;;;;;;;4989619;28;20034;-81
2021/07/03 22:16:48;;;;;;;7.68;5.90;;;;;;;;;;4991279;28;20089;-81
2021/07/03 22:19:13;;;;;;;6.55;5.85;;;;;;;;;;4985446;28;20129;-81
2021/07/03 22:21:43;;;;;;;6.55;5.43;;;;;;;;;;4997310;28;20070;-82
2021/07/03 22:24:08;;;;;;;7.00;6.20;;;;;;;;;;4989448;28;20115;-81
2021/07/03 22:26:34;;;;;;;6.93;5.28;;;;;;;;;;4991657;28;20023;-82
2021/07/03 22:28:59;;;;;;;6.35;5.25;;;;;;;;;;4989957;28;20042;-81
2021/07/03 22:31:26;;;;;;;6.30;5.13;;;;;;;;;;4999276;28;20847;-81
2021/07/03 22:33:52;;;;;;;6.13;5.05;;;;;;;;;;4989569;28;20249;-81
2021/07/03 22:36:18;;;;;;;7.05;5.13;;;;;;;;;;4986693;28;20084;-81
2021/07/03 22:38:46;;;;;;;6.03;4.97;;;;;;;;;;5007205;28;20066;-81
2021/07/03 22:41:12;;;;;;;6.80;5.10;;;;;;;;;;4990509;28;20030;-81
2021/07/03 22:43:37;;;;;;;6.30;5.40;;;;;;;;;;4991341;28;20113;-82
2021/07/03 22:46:04;;;;;;;6.85;5.15;;;;;;;;;;4992130;28;20406;-81
2021/07/03 22:48:29;;;;;;;5.85;4.65;;;;;;;;;;5005470;28;20030;-81
2021/07/03 22:50:55;;;;;;;6.70;5.60;;;;;;;;;;5004257;28;20031;-82
2021/07/03 22:53:20;;;;;;;5.63;4.60;;;;;;;;;;4995232;28;20127;-82
2021/07/03 22:55:46;;;;;;;6.22;4.70;;;;;;;;;;4996878;28;20026;-82
2021/07/03 22:58:11;;;;;;;5.20;4.20;;;;;;;;;;4995275;28;20037;-82
2021/07/03 23:00:40;;;;;;;6.50;5.32;;;;;;;;;;4993874;28;20045;-82
2021/07/03 23:03:07;;;;;;;5.95;4.88;;;;;;;;;;5009566;28;20112;-82
2021/07/03 23:05:33;;;;;;;6.40;4.78;;;;;;;;;;4999250;28;20390;-82
2021/07/03 23:08:01;;;;;;;7.22;5.18;;;;;;;;;;5012087;28;20034;-82
2021/07/03 23:10:31;;;;;;;7.10;5.00;;;;;;;;;;4992750;28;20045;-82
2021/07/03 23:12:57;;;;;;;5.97;4.47;;;;;;;;;;4992385;28;20034;-82
2021/07/03 23:15:23;;;;;;;5.78;4.88;;;;;;;;;;4996599;28;20405;-82
2021/07/03 23:17:49;;;;;;;6.30;4.75;;;;;;;;;;5021276;28;20121;-82
2021/07/03 23:20:20;;;;;;;5.60;4.80;;;;;;;;;;5011403;28;20057;-82
2021/07/03 23:22:48;;;;;;;6.78;5.07;;;;;;;;;;5017568;28;20062;-82
2021/07/03 23:25:14;;;;;;;5.53;4.72;;;;;;;;;;5006663;28;20121;-82
2021/07/03 23:27:40;;;;;;;8.68;5.30;;;;;;;;;;5021136;28;20038;-82
2021/07/03 23:30:11;;;;;;;6.05;4.65;;;;;;;;;;5017667;28;20137;-82
2021/07/03 23:32:37;;;;;;;7.10;4.70;;;;;;;;;;5007843;28;20026;-82
2021/07/03 23:35:03;;;;;;;6.13;4.82;;;;;;;;;;4988698;28;20038;-82
2021/07/03 23:37:28;;;;;;;7.10;6.10;;;;;;;;;;4979355;28;20034;-82
2021/07/03 23:39:54;;;;;;;6.32;4.90;;;;;;;;;;4988231;28;20119;-82
2021/07/03 23:42:19;;;;;;;6.90;5.38;;;;;;;;;;5020207;28;20489;-82
2021/07/03 23:44:45;;;;;;;5.63;4.95;;;;;;;;;;4992981;28;20038;-82
2021/07/03 23:47:10;;;;;;;6.05;4.90;;;;;;;;;;5006678;28;20047;-82
2021/07/03 23:49:35;;;;;;;6.85;5.35;;;;;;;;;;4993927;28;20049;-82
2021/07/03 23:52:01;;;;;;;8.70;6.97;;;;;;;;;;4985543;28;20038;-81
2021/07/03 23:54:26;;;;;;;7.85;5.78;;;;;;;;;;4990271;28;20097;-82
2021/07/03 23:56:52;;;;;;;7.70;5.60;;;;;;;;;;4995593;28;20081;-81
2021/07/03 23:59:17;;;;;;;6.63;5.85;;;;;;;;;;4983433;28;20118;-82
